Terminal Aerodrome Forecast
Issued by NWS Nashville, TN

Home | Current Version | Previous Version | Text Only | Print | Product List | Glossary On
Versions: 1 2 3 4 5 6 7 8 9 10 11 12
115
FTUS44 KOHX 221120
TAFBNA
TAF
KBNA 221120Z 2212/2312 21006KT P6SM SCT250
     FM221500 24010G16KT P6SM SCT050 BKN250
     FM222200 25009G16KT P6SM VCTS BKN050CB
     FM230300 31006KT P6SM SCT050 BKN100
     FM230900 34004KT 5SM BR BKN025=

USA.gov is the U.S. government's official web portal to all federal, state and local government web resources and services.